createdAt,value
2016-11-01T00:00:25.976Z,3.3
2016-11-01T00:01:25.905Z,3.23
2016-11-01T00:02:25.945Z,3.23
2016-11-01T00:03:25.887Z,3.3
2016-11-01T00:04:25.885Z,3.23
2016-11-01T00:05:25.852Z,3.23
2016-11-01T00:06:25.880Z,3.25
2016-11-01T00:07:25.875Z,3.2
2016-11-01T00:08:26.056Z,3.19
2016-11-01T00:09:26.025Z,3.16
2016-11-01T00:10:25.822Z,3.02
2016-11-01T00:11:25.781Z,3.05
2016-11-01T00:12:25.775Z,3.1
2016-11-01T00:13:25.770Z,3.1
2016-11-01T00:14:25.726Z,3.08
2016-11-01T00:15:25.732Z,3.1
2016-11-01T00:16:25.775Z,3.1
2016-11-01T00:17:25.738Z,3.12
2016-11-01T00:18:25.710Z,3.01
2016-11-01T00:19:25.708Z,2.98
2016-11-01T00:20:25.672Z,2.99
2016-11-01T00:21:25.800Z,2.98
2016-11-01T00:22:25.637Z,3.04
2016-11-01T00:23:25.597Z,2.94
2016-11-01T00:24:25.618Z,2.87
2016-11-01T00:25:25.595Z,2.97
2016-11-01T00:26:25.568Z,3.02
2016-11-01T00:27:25.564Z,2.97
2016-11-01T00:28:25.560Z,2.97
2016-11-01T00:29:25.538Z,2.99
2016-11-01T00:30:25.552Z,2.97
2016-11-01T00:31:25.541Z,2.86
2016-11-01T00:32:25.491Z,2.99
2016-11-01T00:33:25.517Z,2.99
2016-11-01T00:34:25.485Z,2.95
2016-11-01T00:35:25.458Z,2.97
2016-11-01T00:36:25.636Z,2.92
2016-11-01T00:37:25.441Z,2.95
2016-11-01T00:38:25.618Z,2.98
2016-11-01T00:39:25.406Z,2.98
2016-11-01T00:40:25.411Z,2.9
2016-11-01T00:41:25.368Z,2.98
2016-11-01T00:42:25.364Z,2.97
2016-11-01T00:43:25.385Z,3.1
2016-11-01T00:44:25.322Z,3.12
2016-11-01T00:45:25.327Z,3.28
2016-11-01T00:46:25.291Z,3.28
2016-11-01T00:47:25.298Z,3.26
2016-11-01T00:48:25.275Z,3.28
2016-11-01T00:49:25.257Z,3.26
2016-11-01T00:50:25.236Z,3.31
2016-11-01T00:51:25.199Z,3.26
2016-11-01T00:52:25.203Z,3.31
2016-11-01T00:53:25.192Z,3.23
2016-11-01T00:54:25.207Z,3.13
2016-11-01T00:55:25.475Z,3.23
2016-11-01T00:56:25.148Z,3.16
2016-11-01T00:57:25.111Z,3.1
2016-11-01T00:58:25.130Z,3.08
2016-11-01T00:59:25.082Z,2.99
2016-11-01T01:00:25.101Z,3.13
2016-11-01T01:01:25.074Z,3.08
2016-11-01T01:02:25.049Z,3.08
2016-11-01T01:03:25.068Z,3.12
2016-11-01T01:04:25.068Z,3.1
2016-11-01T01:05:25.030Z,2.97
2016-11-01T01:06:24.995Z,2.95
2016-11-01T01:07:24.967Z,2.98
2016-11-01T01:08:24.953Z,2.99
2016-11-01T01:09:24.950Z,2.98
2016-11-01T01:10:24.955Z,3.02
2016-11-01T01:11:24.943Z,2.98
2016-11-01T01:12:24.951Z,2.92
2016-11-01T01:13:24.934Z,2.95
2016-11-01T01:14:24.899Z,2.89
2016-11-01T01:15:24.864Z,2.84
2016-11-01T01:16:24.840Z,2.79
2016-11-01T01:17:24.847Z,2.9
2016-11-01T01:18:25.023Z,2.9
2016-11-01T01:19:24.820Z,2.9
2016-11-01T01:20:25.092Z,2.83
2016-11-01T01:21:24.797Z,2.87
2016-11-01T01:22:24.786Z,2.92
2016-11-01T01:23:24.769Z,2.83
2016-11-01T01:24:24.775Z,2.92
2016-11-01T01:25:24.706Z,2.87
2016-11-01T01:26:24.716Z,2.83
2016-11-01T01:27:24.772Z,2.94
2016-11-01T01:28:24.694Z,2.81
2016-11-01T01:29:24.679Z,2.79
2016-11-01T01:30:24.654Z,2.83
2016-11-01T01:31:24.642Z,2.77
2016-11-01T01:32:24.614Z,2.8
2016-11-01T01:33:24.601Z,2.8
2016-11-01T01:34:24.617Z,2.84
2016-11-01T01:35:24.596Z,2.79
2016-11-01T01:36:24.567Z,2.79
2016-11-01T01:37:24.543Z,2.79
2016-11-01T01:38:24.550Z,2.79
2016-11-01T01:39:24.524Z,2.83
2016-11-01T01:40:24.499Z,2.83
2016-11-01T01:41:24.473Z,2.81
2016-11-01T01:42:24.491Z,2.86
2016-11-01T01:43:24.484Z,2.8
2016-11-01T01:44:24.472Z,2.77
2016-11-01T01:45:24.437Z,2.92
2016-11-01T01:46:24.422Z,2.79
2016-11-01T01:47:24.388Z,2.79
2016-11-01T01:48:24.393Z,2.84
2016-11-01T01:49:24.391Z,2.86
2016-11-01T01:50:24.373Z,2.8
2016-11-01T01:51:24.348Z,2.84
2016-11-01T01:52:24.339Z,2.87
2016-11-01T01:53:24.353Z,2.9
2016-11-01T01:54:24.303Z,2.95
2016-11-01T01:55:24.266Z,2.9
2016-11-01T01:56:24.307Z,2.9
2016-11-01T01:57:24.281Z,2.98
2016-11-01T01:58:24.276Z,2.92
2016-11-01T01:59:24.244Z,2.99
2016-11-01T02:00:24.253Z,2.92
2016-11-01T02:01:24.191Z,2.89
2016-11-01T02:02:24.219Z,2.9
2016-11-01T02:03:24.206Z,2.97
2016-11-01T02:04:24.158Z,2.87
2016-11-01T02:05:24.154Z,2.89
2016-11-01T02:06:24.160Z,2.89
2016-11-01T02:07:24.114Z,2.98
2016-11-01T02:08:24.119Z,2.98
2016-11-01T02:09:24.086Z,3.02
2016-11-01T02:10:24.060Z,2.95
2016-11-01T02:11:24.055Z,2.99
2016-11-01T02:12:24.029Z,2.92
2016-11-01T02:13:24.075Z,2.95
2016-11-01T02:14:24.034Z,2.94
2016-11-01T02:15:24.032Z,2.84
2016-11-01T02:16:23.999Z,2.9
2016-11-01T02:17:23.971Z,2.97
2016-11-01T02:18:23.976Z,2.9
2016-11-01T02:19:23.939Z,2.94
2016-11-01T02:20:23.958Z,2.87
2016-11-01T02:21:23.925Z,2.99
2016-11-01T02:22:23.921Z,2.97
2016-11-01T02:23:23.870Z,3.01
2016-11-01T02:24:23.861Z,2.9
2016-11-01T02:25:23.830Z,2.8
2016-11-01T02:26:24.121Z,2.87
2016-11-01T02:27:23.799Z,2.9
2016-11-01T02:28:23.821Z,2.8
2016-11-01T02:29:23.828Z,2.81
2016-11-01T02:30:23.768Z,2.89
2016-11-01T02:31:23.797Z,2.89
2016-11-01T02:32:24.052Z,2.81
2016-11-01T02:33:23.746Z,2.92
2016-11-01T02:34:23.733Z,2.83
2016-11-01T02:35:23.722Z,2.8
2016-11-01T02:36:23.712Z,2.83
2016-11-01T02:37:23.666Z,2.81
2016-11-01T02:38:23.675Z,2.81
2016-11-01T02:39:23.655Z,2.84
2016-11-01T02:40:23.644Z,2.83
2016-11-01T02:41:23.618Z,2.87
2016-11-01T02:42:23.603Z,2.77
2016-11-01T02:43:23.625Z,2.84
2016-11-01T02:44:23.597Z,2.8
2016-11-01T02:45:23.573Z,2.86
2016-11-01T02:46:23.545Z,2.79
2016-11-01T02:47:23.543Z,2.84
2016-11-01T02:48:23.515Z,2.79
2016-11-01T02:49:23.511Z,2.81
2016-11-01T02:50:23.484Z,2.77
2016-11-01T02:51:23.450Z,2.83
2016-11-01T02:52:23.457Z,2.83
2016-11-01T02:53:23.463Z,2.81
2016-11-01T02:54:23.427Z,2.84
2016-11-01T02:55:23.413Z,2.83
2016-11-01T02:56:23.401Z,2.94
2016-11-01T02:57:23.386Z,2.94
2016-11-01T02:58:23.346Z,2.99
2016-11-01T02:59:23.369Z,2.99
2016-11-01T03:00:23.315Z,2.9
2016-11-01T03:01:23.358Z,2.87
2016-11-01T03:02:23.344Z,2.86
2016-11-01T03:03:23.271Z,2.84
2016-11-01T03:04:23.258Z,2.87
2016-11-01T03:05:23.265Z,2.8
2016-11-01T03:06:23.266Z,2.83
2016-11-01T03:07:23.257Z,2.89
2016-11-01T03:08:23.197Z,2.9
2016-11-01T03:09:23.221Z,2.89
2016-11-01T03:10:23.194Z,2.9
2016-11-01T03:11:23.187Z,2.95
2016-11-01T03:12:23.192Z,2.9
2016-11-01T03:13:23.170Z,2.9
2016-11-01T03:14:23.157Z,2.94
2016-11-01T03:15:23.155Z,2.97
2016-11-01T03:16:23.101Z,2.89
2016-11-01T03:17:23.100Z,2.89
2016-11-01T03:18:23.086Z,2.83
2016-11-01T03:19:23.093Z,2.89
2016-11-01T03:20:23.045Z,2.8
2016-11-01T03:21:23.050Z,2.83
2016-11-01T03:22:23.027Z,2.79
2016-11-01T03:23:23.000Z,2.79
2016-11-01T03:24:23.033Z,2.8
2016-11-01T03:25:22.982Z,2.92
2016-11-01T03:26:23.019Z,2.95
2016-11-01T03:27:22.955Z,2.86
2016-11-01T03:28:22.909Z,2.89
2016-11-01T03:29:22.944Z,2.92
2016-11-01T03:30:22.933Z,2.81
2016-11-01T03:31:22.907Z,2.83
2016-11-01T03:32:22.869Z,2.79
2016-11-01T03:33:22.834Z,2.89
2016-11-01T03:34:22.825Z,2.81
2016-11-01T03:35:22.856Z,2.94
2016-11-01T03:36:22.823Z,2.87
2016-11-01T03:37:22.796Z,2.97
2016-11-01T03:38:22.759Z,2.97
2016-11-01T03:39:22.758Z,2.87
2016-11-01T03:40:22.751Z,2.98
2016-11-01T03:41:22.716Z,2.87
2016-11-01T03:42:22.734Z,2.86
2016-11-01T03:43:23.043Z,3.07
2016-11-01T03:44:22.680Z,2.95
2016-11-01T03:45:22.691Z,2.99
2016-11-01T03:46:22.683Z,2.97
2016-11-01T03:47:22.685Z,2.98
2016-11-01T03:48:22.657Z,2.94
2016-11-01T03:49:22.635Z,2.99
2016-11-01T03:50:22.628Z,2.9
2016-11-01T03:51:22.603Z,2.92
2016-11-01T03:52:22.611Z,2.95
2016-11-01T03:53:22.582Z,2.89
2016-11-01T03:54:22.560Z,2.9
2016-11-01T03:55:22.542Z,2.97
2016-11-01T03:56:22.531Z,2.98
2016-11-01T03:57:22.537Z,2.92
2016-11-01T03:58:22.503Z,3.02
2016-11-01T03:59:22.463Z,2.97
2016-11-01T04:00:22.460Z,3.01
2016-11-01T04:01:22.474Z,3.02
2016-11-01T04:02:22.437Z,2.95
2016-11-01T04:03:22.443Z,2.95
2016-11-01T04:04:22.417Z,2.99
2016-11-01T04:05:22.423Z,2.98
2016-11-01T04:06:22.391Z,2.95
2016-11-01T04:07:22.362Z,2.9
2016-11-01T04:08:22.357Z,3.05
2016-11-01T04:09:22.340Z,2.98
2016-11-01T04:10:22.335Z,2.92
2016-11-01T04:11:22.306Z,2.97
2016-11-01T04:12:22.319Z,2.94
2016-11-01T04:13:22.282Z,3.12
2016-11-01T04:14:22.234Z,3.12
2016-11-01T04:15:22.243Z,3.07
2016-11-01T04:16:22.230Z,3.1
2016-11-01T04:17:22.204Z,2.95
2016-11-01T04:18:22.210Z,3.01
2016-11-01T04:19:22.196Z,2.98
2016-11-01T04:20:22.197Z,2.95
2016-11-01T04:21:22.171Z,3.04
2016-11-01T04:22:22.142Z,3.05
2016-11-01T04:23:22.127Z,2.98
2016-11-01T04:24:22.125Z,2.99
2016-11-01T04:25:22.085Z,2.98
2016-11-01T04:26:22.082Z,2.99
2016-11-01T04:27:22.089Z,3.02
2016-11-01T04:28:22.065Z,2.99
2016-11-01T04:29:22.054Z,3.02
2016-11-01T04:30:22.028Z,2.95
2016-11-01T04:31:21.995Z,2.94
2016-11-01T04:32:22.008Z,2.99
2016-11-01T04:33:21.982Z,2.99
2016-11-01T04:34:21.985Z,2.98
2016-11-01T04:35:21.965Z,2.98
2016-11-01T04:36:21.971Z,2.98
2016-11-01T04:37:21.927Z,3.1
2016-11-01T04:38:21.953Z,3.1
2016-11-01T04:39:21.930Z,3.13
2016-11-01T04:40:21.884Z,3.13
2016-11-01T04:41:21.850Z,3.15
2016-11-01T04:42:21.835Z,3.12
2016-11-01T04:43:21.850Z,3.1
2016-11-01T04:44:21.802Z,3.08
2016-11-01T04:45:21.836Z,2.95
2016-11-01T04:46:21.832Z,3.01
2016-11-01T04:47:21.805Z,3.1
2016-11-01T04:48:21.780Z,3.16
2016-11-01T04:49:21.736Z,3.13
2016-11-01T04:50:21.723Z,3.07
2016-11-01T04:51:21.748Z,3.23
2016-11-01T04:52:21.704Z,3.23
2016-11-01T04:53:21.698Z,3.34
2016-11-01T04:54:21.700Z,3.28
2016-11-01T04:55:21.671Z,3.31
2016-11-01T04:56:21.646Z,3.25
2016-11-01T04:57:21.672Z,3.28
2016-11-01T04:58:21.641Z,3.23
2016-11-01T04:59:21.896Z,3.28
2016-11-01T05:00:21.588Z,3.3
2016-11-01T05:01:21.598Z,3.23
2016-11-01T05:02:21.579Z,3.28
2016-11-01T05:03:21.602Z,3.3
2016-11-01T05:04:21.827Z,3.25
2016-11-01T05:05:21.561Z,3.35
2016-11-01T05:06:21.504Z,3.37
2016-11-01T05:07:21.536Z,3.23
2016-11-01T05:08:21.492Z,3.37
2016-11-01T05:09:21.504Z,3.35
2016-11-01T05:10:21.461Z,3.33
2016-11-01T05:11:21.477Z,3.37
2016-11-01T05:12:21.463Z,3.37
2016-11-01T05:13:21.417Z,3.41
2016-11-01T05:14:21.414Z,3.39
2016-11-01T05:15:21.423Z,3.23
2016-11-01T05:16:21.361Z,3.2
2016-11-01T05:17:21.357Z,3.22
2016-11-01T05:18:21.326Z,3.15
2016-11-01T05:19:21.311Z,3.15
2016-11-01T05:20:21.323Z,3.13
2016-11-01T05:21:21.312Z,3.19
2016-11-01T05:22:21.293Z,3.12
2016-11-01T05:23:21.261Z,3.13
2016-11-01T05:24:21.579Z,3.08
2016-11-01T05:25:21.241Z,3.13
2016-11-01T05:26:21.241Z,3.1
2016-11-01T05:27:21.216Z,3.08
2016-11-01T05:28:21.232Z,2.95
2016-11-01T05:29:21.185Z,2.98
2016-11-01T05:30:21.159Z,3.01
2016-11-01T05:31:21.161Z,3.02
2016-11-01T05:32:21.140Z,3.01
2016-11-01T05:33:21.122Z,2.97
2016-11-01T05:34:21.130Z,2.98
2016-11-01T05:35:21.116Z,2.94
2016-11-01T05:36:21.102Z,2.92
2016-11-01T05:37:21.078Z,2.95
2016-11-01T05:38:21.041Z,2.99
2016-11-01T05:39:21.020Z,2.84
2016-11-01T05:40:21.078Z,2.94
2016-11-01T05:41:21.028Z,2.97
2016-11-01T05:42:20.992Z,2.87
2016-11-01T05:43:21.002Z,2.83
2016-11-01T05:44:20.980Z,2.79
2016-11-01T05:45:20.956Z,2.81
2016-11-01T05:46:20.953Z,2.79
2016-11-01T05:47:20.901Z,2.89
2016-11-01T05:48:20.891Z,2.89
2016-11-01T05:49:20.901Z,2.92
2016-11-01T05:50:20.917Z,2.79
2016-11-01T05:51:20.863Z,2.81
2016-11-01T05:52:20.904Z,2.87
2016-11-01T05:53:20.851Z,2.86
2016-11-01T05:54:20.843Z,2.95
2016-11-01T05:55:20.807Z,2.98
2016-11-01T05:56:20.823Z,2.89
2016-11-01T05:57:20.756Z,2.9
2016-11-01T05:58:20.785Z,2.97
2016-11-01T05:59:20.759Z,2.9
2016-11-01T06:00:20.724Z,2.9
2016-11-01T06:01:20.698Z,2.84
2016-11-01T06:02:20.717Z,2.83
2016-11-01T06:03:20.687Z,2.81
2016-11-01T06:04:20.657Z,2.86
2016-11-01T06:05:20.647Z,2.77
2016-11-01T06:06:20.644Z,2.81
2016-11-01T06:07:20.648Z,2.81
2016-11-01T06:08:20.600Z,2.97
2016-11-01T06:09:20.609Z,2.9
2016-11-01T06:10:20.563Z,2.95
2016-11-01T06:11:20.554Z,3.02
2016-11-01T06:12:20.551Z,3.12
2016-11-01T06:13:20.536Z,3.01
2016-11-01T06:14:20.542Z,2.98
2016-11-01T06:15:20.494Z,3.07
2016-11-01T06:16:20.467Z,3.12
2016-11-01T06:17:20.457Z,3.1
2016-11-01T06:18:20.448Z,3.15
2016-11-01T06:19:20.431Z,3.22
2016-11-01T06:20:20.427Z,3.26
2016-11-01T06:21:20.435Z,3.25
2016-11-01T06:22:20.408Z,3.45
2016-11-01T06:23:20.361Z,3.33
2016-11-01T06:24:20.378Z,3.33
2016-11-01T06:25:20.353Z,3.37
2016-11-01T06:26:20.325Z,3.41
2016-11-01T06:27:20.301Z,3.44
2016-11-01T06:28:20.316Z,3.41
2016-11-01T06:29:20.319Z,3.49
2016-11-01T06:30:20.251Z,3.63
2016-11-01T06:31:20.267Z,3.45
2016-11-01T06:32:20.225Z,3.54
2016-11-01T06:33:20.237Z,3.46
2016-11-01T06:34:20.207Z,3.52
2016-11-01T06:35:20.167Z,3.35
2016-11-01T06:36:20.157Z,3.46
2016-11-01T06:37:20.189Z,3.52
2016-11-01T06:38:20.180Z,3.56
2016-11-01T06:39:20.155Z,3.54
2016-11-01T06:40:20.141Z,3.46
2016-11-01T06:41:20.081Z,3.57
2016-11-01T06:42:20.092Z,3.6
2016-11-01T06:43:20.406Z,3.63
2016-11-01T06:44:20.111Z,3.54
2016-11-01T06:45:20.048Z,3.49
2016-11-01T06:46:20.074Z,3.53
2016-11-01T06:47:20.051Z,3.62
2016-11-01T06:48:20.010Z,3.6
2016-11-01T06:49:20.095Z,3.59
2016-11-01T06:50:19.986Z,3.78
2016-11-01T06:51:19.968Z,3.7
2016-11-01T06:52:19.941Z,3.71
2016-11-01T06:53:19.905Z,3.68
2016-11-01T06:54:19.922Z,3.8
2016-11-01T06:55:19.931Z,3.75
2016-11-01T06:56:19.933Z,3.81
2016-11-01T06:57:19.881Z,3.84
2016-11-01T06:58:19.841Z,3.63
2016-11-01T06:59:19.860Z,3.71
2016-11-01T07:00:19.832Z,3.67
2016-11-01T07:01:19.809Z,3.67
2016-11-01T07:02:20.136Z,3.88
2016-11-01T07:03:19.794Z,3.84
2016-11-01T07:04:19.766Z,3.88
2016-11-01T07:05:19.727Z,3.8
2016-11-01T07:06:19.735Z,3.93
2016-11-01T07:07:19.736Z,3.99
2016-11-01T07:08:19.729Z,3.9
2016-11-01T07:09:19.704Z,3.81
2016-11-01T07:10:19.664Z,4.02
2016-11-01T07:11:19.678Z,4.06
2016-11-01T07:12:19.641Z,4.11
2016-11-01T07:13:19.617Z,4.25
2016-11-01T07:14:19.638Z,4.04
2016-11-01T07:15:19.636Z,4
2016-11-01T07:16:19.611Z,3.99
2016-11-01T07:17:19.609Z,4.08
2016-11-01T07:18:19.562Z,4.2
2016-11-01T07:19:19.549Z,4.21
2016-11-01T07:20:19.547Z,4.16
2016-11-01T07:21:19.544Z,4.07
2016-11-01T07:22:19.536Z,4.31
2016-11-01T07:23:19.493Z,4.16
2016-11-01T07:24:19.484Z,4.28
2016-11-01T07:25:19.477Z,4.14
2016-11-01T07:26:19.452Z,4.18
2016-11-01T07:27:19.423Z,4.07
2016-11-01T07:28:19.443Z,4.21
2016-11-01T07:29:19.410Z,4.46
2016-11-01T07:30:19.380Z,4.35
2016-11-01T07:31:19.386Z,4.34
2016-11-01T07:32:19.384Z,4.32
2016-11-01T07:33:19.341Z,4.32
2016-11-01T07:34:19.367Z,4.34
2016-11-01T07:35:19.319Z,4.06
2016-11-01T07:36:19.311Z,3.98
2016-11-01T07:37:19.318Z,3.92
2016-11-01T07:38:19.256Z,4
2016-11-01T07:39:19.275Z,3.93
2016-11-01T07:40:19.258Z,3.93
2016-11-01T07:41:19.259Z,3.98
2016-11-01T07:42:19.215Z,3.95
2016-11-01T07:43:19.207Z,3.93
2016-11-01T07:44:19.231Z,3.95
2016-11-01T07:45:19.180Z,4.11
2016-11-01T07:46:19.201Z,3.98
2016-11-01T07:47:19.185Z,4.16
2016-11-01T07:48:19.153Z,4.42
2016-11-01T07:49:19.160Z,4.28
2016-11-01T07:50:19.124Z,4.26
2016-11-01T07:51:19.101Z,4.14
2016-11-01T07:52:19.082Z,4.11
2016-11-01T07:53:19.049Z,4.11
2016-11-01T07:54:19.079Z,4.13
2016-11-01T07:55:19.049Z,4.39
2016-11-01T07:56:19.030Z,4.71
2016-11-01T07:57:19.037Z,4.35
2016-11-01T07:58:18.982Z,4.47
2016-11-01T07:59:19.000Z,4.54
2016-11-01T08:00:18.984Z,4.49
2016-11-01T08:01:18.946Z,4.38
2016-11-01T08:02:18.934Z,4.5
2016-11-01T08:03:18.944Z,4.68
2016-11-01T08:04:18.932Z,4.39
2016-11-01T08:05:18.929Z,4.67
2016-11-01T08:06:18.903Z,4.53
2016-11-01T08:07:18.877Z,4.36
2016-11-01T08:08:18.878Z,4.54
2016-11-01T08:09:18.850Z,4.79
2016-11-01T08:10:18.858Z,4.91
2016-11-01T08:11:18.806Z,4.91
2016-11-01T08:12:18.830Z,4.87
2016-11-01T08:13:18.808Z,5.02
2016-11-01T08:14:18.805Z,5.14
2016-11-01T08:15:18.774Z,4.79
2016-11-01T08:16:18.748Z,4.93
2016-11-01T08:17:18.759Z,5.05
2016-11-01T08:18:18.747Z,5.23
2016-11-01T08:19:18.732Z,5.41
2016-11-01T08:20:18.707Z,4.87
2016-11-01T08:21:18.705Z,4.68
2016-11-01T08:22:18.719Z,4.62
2016-11-01T08:23:18.666Z,5.08
2016-11-01T08:24:18.686Z,5.01
2016-11-01T08:25:18.649Z,5.2
2016-11-01T08:26:18.605Z,5.33
2016-11-01T08:27:18.646Z,5.74
2016-11-01T08:28:18.615Z,5.87
2016-11-01T08:29:18.610Z,5.8
2016-11-01T08:30:18.579Z,5.8
2016-11-01T08:31:18.561Z,5.6
2016-11-01T08:32:18.539Z,5.96
2016-11-01T08:33:18.562Z,6.51
2016-11-01T08:34:18.525Z,6.86
2016-11-01T08:35:18.494Z,6.53
2016-11-01T08:36:18.515Z,5.84
2016-11-01T08:37:18.518Z,5.52
2016-11-01T08:38:18.475Z,5.37
2016-11-01T08:39:18.450Z,5.23
2016-11-01T08:40:18.452Z,5.55
2016-11-01T08:41:18.777Z,5.85
2016-11-01T08:42:18.475Z,5.81
2016-11-01T08:43:18.406Z,5.78
2016-11-01T08:44:18.714Z,5.3
2016-11-01T08:45:18.389Z,5.05
2016-11-01T08:46:18.389Z,5.32
2016-11-01T08:47:18.354Z,5.33
2016-11-01T08:48:18.329Z,5.4
2016-11-01T08:49:18.321Z,5.19
2016-11-01T08:50:18.308Z,5.27
2016-11-01T08:51:18.292Z,5.2
2016-11-01T08:52:18.301Z,5.06
2016-11-01T08:53:18.321Z,4.91
2016-11-01T08:54:18.297Z,5.38
2016-11-01T08:55:18.331Z,5.63
2016-11-01T08:56:18.256Z,5.78
2016-11-01T08:57:18.213Z,5.83
2016-11-01T08:58:18.230Z,5.85
2016-11-01T08:59:18.526Z,5.95
2016-11-01T09:00:18.194Z,5.9
2016-11-01T09:01:18.213Z,5.96
2016-11-01T09:02:18.170Z,6.05
2016-11-01T09:03:18.134Z,5.96
2016-11-01T09:04:18.133Z,5.44
2016-11-01T09:05:18.448Z,5.47
2016-11-01T09:06:18.109Z,5.38
2016-11-01T09:07:18.085Z,5.29
2016-11-01T09:08:18.106Z,5.04
2016-11-01T09:09:18.081Z,5.49
2016-11-01T09:10:18.065Z,5.87
2016-11-01T09:11:18.072Z,5.56
2016-11-01T09:12:18.076Z,5.47
2016-11-01T09:13:18.020Z,5.41
2016-11-01T09:14:18.016Z,5.75
2016-11-01T09:15:18.063Z,5.98
2016-11-01T09:16:18.364Z,6.63
2016-11-01T09:17:17.957Z,7.05
2016-11-01T09:18:17.944Z,7.37
2016-11-01T09:19:17.988Z,7.79
2016-11-01T09:20:17.953Z,7.55
2016-11-01T09:21:17.964Z,7.63
2016-11-01T09:22:17.906Z,7.6
2016-11-01T09:23:17.893Z,7.79
2016-11-01T09:24:17.873Z,7.55
2016-11-01T09:25:17.886Z,7.47
2016-11-01T09:26:18.224Z,7.32
2016-11-01T09:27:17.894Z,7.52
2016-11-01T09:28:17.844Z,7.76
2016-11-01T09:29:17.856Z,7.74
2016-11-01T09:30:17.824Z,7.62
2016-11-01T09:31:17.824Z,7.26
2016-11-01T09:32:17.792Z,7.41
2016-11-01T09:33:17.812Z,7.29
2016-11-01T09:34:17.806Z,7.21
2016-11-01T09:35:17.773Z,7.3
2016-11-01T09:36:17.784Z,6.96
2016-11-01T09:37:17.741Z,6.99
2016-11-01T09:38:17.762Z,7.01
2016-11-01T09:39:17.705Z,7.05
2016-11-01T09:40:17.715Z,7.36
2016-11-01T09:41:17.683Z,7.82
2016-11-01T09:42:17.712Z,7.58
2016-11-01T09:43:17.680Z,7.45
2016-11-01T09:44:17.695Z,6.97
2016-11-01T09:45:17.691Z,6.83
2016-11-01T09:46:17.690Z,7
2016-11-01T09:47:17.660Z,7.58
2016-11-01T09:48:17.664Z,7.76
2016-11-01T09:49:17.594Z,7.6
2016-11-01T09:50:17.615Z,7.47
2016-11-01T09:51:17.581Z,7.42
2016-11-01T09:52:17.607Z,7.89
2016-11-01T09:53:17.571Z,7.71
2016-11-01T09:54:17.583Z,7.45
2016-11-01T09:55:17.530Z,7.5
2016-11-01T09:56:17.517Z,7.73
2016-11-01T09:57:17.540Z,8.03
2016-11-01T09:58:17.505Z,8.34
2016-11-01T09:59:17.516Z,8.31
2016-11-01T10:00:17.515Z,8.71
2016-11-01T10:01:17.486Z,8.31
2016-11-01T10:02:17.471Z,8.43
2016-11-01T10:03:17.474Z,8.34
2016-11-01T10:04:17.451Z,8.42
2016-11-01T10:05:17.454Z,8.61
2016-11-01T10:06:17.727Z,8.68
2016-11-01T10:07:17.435Z,8.63
2016-11-01T10:08:17.425Z,8.31
2016-11-01T10:09:17.400Z,7.99
2016-11-01T10:10:17.407Z,7.79
2016-11-01T10:11:17.386Z,7.66
2016-11-01T10:12:17.400Z,7.89
2016-11-01T10:13:17.391Z,8
2016-11-01T10:14:17.377Z,8.22
2016-11-01T10:15:17.401Z,7.81
2016-11-01T10:16:17.365Z,8.02
2016-11-01T10:17:17.317Z,8.31
2016-11-01T10:18:17.303Z,8.39
2016-11-01T10:19:17.271Z,8.54
2016-11-01T10:20:17.353Z,8.63
2016-11-01T10:21:17.272Z,8.32
2016-11-01T10:22:17.283Z,8.31
2016-11-01T10:23:17.231Z,8.04
2016-11-01T10:24:17.274Z,8.39
2016-11-01T10:25:17.215Z,8.32
2016-11-01T10:26:17.221Z,8.54
2016-11-01T10:27:17.233Z,8.86
2016-11-01T10:28:17.173Z,8.54
2016-11-01T10:29:17.200Z,7.96
2016-11-01T10:30:17.177Z,8.17
2016-11-01T10:31:17.188Z,7.86
2016-11-01T10:32:17.465Z,8.12
2016-11-01T10:33:17.187Z,8.02
2016-11-01T10:34:17.124Z,7.57
2016-11-01T10:35:17.132Z,7.62
2016-11-01T10:36:17.111Z,7.73
2016-11-01T10:37:17.092Z,7.79
2016-11-01T10:38:17.077Z,8.17
2016-11-01T10:39:17.080Z,8.4
2016-11-01T10:40:17.056Z,8.04
2016-11-01T10:41:17.059Z,7.21
2016-11-01T10:42:17.057Z,7.12
2016-11-01T10:43:17.061Z,7.48
2016-11-01T10:44:17.007Z,7.69
2016-11-01T10:45:17.005Z,8.14
2016-11-01T10:46:17.013Z,7.7
2016-11-01T10:47:17.013Z,7.44
2016-11-01T10:48:17.003Z,7.84
2016-11-01T10:49:17.006Z,7.79
2016-11-01T10:50:17.247Z,7.94
2016-11-01T10:51:16.949Z,7.95
2016-11-01T10:52:16.972Z,8.22
2016-11-01T10:53:16.927Z,8.57
2016-11-01T10:54:16.929Z,8.34
2016-11-01T10:55:16.917Z,8.97
2016-11-01T10:56:16.906Z,8.78
2016-11-01T10:57:16.869Z,8
2016-11-01T10:58:16.872Z,8.03
2016-11-01T10:59:17.062Z,8.46
2016-11-01T11:00:16.844Z,8.52
2016-11-01T11:01:16.848Z,7.99
2016-11-01T11:02:16.867Z,7.15
2016-11-01T11:03:16.826Z,6.96
2016-11-01T11:04:16.804Z,6.86
2016-11-01T11:05:16.810Z,6.72
2016-11-01T11:06:16.789Z,6.33
2016-11-01T11:07:16.780Z,6.71
2016-11-01T11:08:16.779Z,6.86
2016-11-01T11:09:16.759Z,7.27
2016-11-01T11:10:16.759Z,7.99
2016-11-01T11:11:16.736Z,8.34
2016-11-01T11:12:16.734Z,8.42
2016-11-01T11:13:16.723Z,7.95
2016-11-01T11:14:16.732Z,7.54
2016-11-01T11:15:16.722Z,7.3
2016-11-01T11:16:16.711Z,7.12
2016-11-01T11:17:16.703Z,7.37
2016-11-01T11:18:16.666Z,7.88
2016-11-01T11:19:16.638Z,8.34
2016-11-01T11:20:16.615Z,8
2016-11-01T11:21:16.624Z,7.42
2016-11-01T11:22:16.610Z,7.29
2016-11-01T11:23:16.613Z,7.55
2016-11-01T11:24:16.603Z,7.21
2016-11-01T11:25:16.589Z,7.73
2016-11-01T11:26:16.547Z,8.02
2016-11-01T11:27:16.612Z,8.55
2016-11-01T11:28:16.568Z,8.61
2016-11-01T11:29:16.533Z,8.42
2016-11-01T11:30:16.539Z,7.6
2016-11-01T11:31:16.548Z,7.55
2016-11-01T11:32:16.519Z,7.91
2016-11-01T11:33:16.475Z,8.14
2016-11-01T11:34:16.486Z,8.12
2016-11-01T11:35:16.472Z,8.29
2016-11-01T11:36:16.495Z,8.13
2016-11-01T11:37:16.451Z,7.66
2016-11-01T11:38:16.439Z,7.85
2016-11-01T11:39:16.741Z,8.25
2016-11-01T11:40:16.424Z,8.7
2016-11-01T11:41:16.442Z,8.88
2016-11-01T11:42:16.408Z,8.75
2016-11-01T11:43:16.386Z,8.57
2016-11-01T11:44:16.360Z,7.95
2016-11-01T11:45:16.400Z,7.69
2016-11-01T11:46:16.342Z,7.89
2016-11-01T11:47:16.359Z,8.43
2016-11-01T11:48:16.353Z,8.37
2016-11-01T11:49:16.301Z,8.6
2016-11-01T11:50:16.324Z,8.18
2016-11-01T11:51:16.303Z,7.84
2016-11-01T11:52:16.288Z,8.21
2016-11-01T11:53:16.282Z,8.58
2016-11-01T11:54:16.270Z,8.97
2016-11-01T11:55:16.357Z,9.45
2016-11-01T11:56:16.269Z,9.31
2016-11-01T11:57:16.217Z,8.85
2016-11-01T11:58:16.567Z,8.98
2016-11-01T11:59:16.207Z,9.12
2016-11-01T12:00:16.210Z,9.31
2016-11-01T12:01:16.205Z,9.37
2016-11-01T12:02:16.190Z,9.16
2016-11-01T12:03:16.156Z,9.13
2016-11-01T12:04:16.166Z,8.68
2016-11-01T12:05:16.134Z,8
2016-11-01T12:06:16.156Z,7.45
2016-11-01T12:07:16.174Z,7.71
2016-11-01T12:08:16.148Z,8.14
2016-11-01T12:09:16.124Z,8.34
2016-11-01T12:10:16.079Z,8.49
2016-11-01T12:11:16.082Z,8.36
2016-11-01T12:12:16.099Z,8.36
2016-11-01T12:13:16.078Z,8.71
2016-11-01T12:14:16.077Z,9.1
2016-11-01T12:15:16.029Z,8.37
2016-11-01T12:16:16.074Z,7.55
2016-11-01T12:17:16.328Z,7.42
2016-11-01T12:18:16.077Z,7.57
2016-11-01T12:19:16.034Z,7.57
2016-11-01T12:20:16.052Z,7.51
2016-11-01T12:21:15.991Z,7.54
2016-11-01T12:22:15.982Z,6.97
2016-11-01T12:23:15.982Z,6.99
2016-11-01T12:24:15.991Z,7.21
2016-11-01T12:25:15.957Z,7.27
2016-11-01T12:26:15.932Z,7.27
2016-11-01T12:27:15.951Z,7.69
2016-11-01T12:28:15.916Z,7.89
2016-11-01T12:29:15.907Z,7.91
2016-11-01T12:30:15.927Z,7.55
2016-11-01T12:31:15.886Z,7.12
2016-11-01T12:32:15.895Z,6.91
2016-11-01T12:33:15.842Z,6.96
2016-11-01T12:34:15.844Z,7.08
2016-11-01T12:35:15.832Z,7.42
2016-11-01T12:36:15.880Z,7.67
2016-11-01T12:37:15.830Z,8.21
2016-11-01T12:38:15.798Z,8.57
2016-11-01T12:39:15.800Z,9.1
2016-11-01T12:40:15.786Z,8.98
2016-11-01T12:41:15.754Z,8.75
2016-11-01T12:42:15.800Z,9.16
2016-11-01T12:43:15.769Z,9.06
2016-11-01T12:44:15.761Z,8.68
2016-11-01T12:45:15.756Z,8.32
2016-11-01T12:46:15.739Z,8.09
2016-11-01T12:47:15.705Z,8.49
2016-11-01T12:48:15.684Z,8.39
2016-11-01T12:49:15.714Z,8.68
2016-11-01T12:50:15.697Z,8.57
2016-11-01T12:51:15.680Z,8.98
2016-11-01T12:52:15.663Z,9.08
2016-11-01T12:53:15.693Z,9
2016-11-01T12:54:15.655Z,8.43
2016-11-01T12:55:15.668Z,8.7
2016-11-01T12:56:15.635Z,8.97
2016-11-01T12:57:15.613Z,9.48
2016-11-01T12:58:15.613Z,10.13
2016-11-01T12:59:15.633Z,10.38
2016-11-01T13:00:15.566Z,10.25
2016-11-01T13:01:15.557Z,10.07
2016-11-01T13:02:15.564Z,10.2
2016-11-01T13:03:15.597Z,10.29
2016-11-01T13:04:15.581Z,10.34
2016-11-01T13:05:15.549Z,10.44
2016-11-01T13:06:15.529Z,9.75
2016-11-01T13:07:15.499Z,8.98
2016-11-01T13:08:15.510Z,8.96
2016-11-01T13:09:15.517Z,9.38
2016-11-01T13:10:15.532Z,9.78
2016-11-01T13:11:15.478Z,9.91
2016-11-01T13:12:15.474Z,9.75
2016-11-01T13:13:15.712Z,9.86
2016-11-01T13:14:15.436Z,9.13
2016-11-01T13:15:15.478Z,9.12
2016-11-01T13:16:15.433Z,9.23
2016-11-01T13:17:15.456Z,9.75
2016-11-01T13:18:15.430Z,9.15
2016-11-01T13:19:15.424Z,8.07
2016-11-01T13:20:15.391Z,7.91
2016-11-01T13:21:15.429Z,7.66